Time;durP1;ratioP1;P1;durP2;ratioP2;P2;SDS_P1;SDS_P2;PMS_P1;PMS_P2;Temp;Humidity;BMP_temperature;BMP_pressure;BME280_temperature;BME280_humidity;BME280_pressure;Samples;Min_cycle;Max_cycle;Signal;HPM_P1;HPM_P2
2022/01/05 04:52:21;;;;;;;4.80;3.90;;;;;;;7.81;100.00;98777.84;6552502;26;20089;31
2022/01/05 04:55:24;;;;;;;7.80;4.15;;;;;;;7.86;99.64;98778.06;6633363;26;34465;-82
2022/01/05 04:58:27;;;;;;;6.85;4.03;;;;;;;7.82;99.84;98777.66;6633392;26;34811;-82
2022/01/05 05:01:30;;;;;;;5.97;3.92;;;;;;;7.98;98.86;98783.69;6631889;26;33747;-82
2022/01/05 05:04:33;;;;;;;7.03;4.07;;;;;;;8.10;98.13;98779.38;6618965;26;34442;-82
2022/01/05 05:07:37;;;;;;;6.03;4.32;;;;;;;8.03;98.38;98781.22;6650465;26;33637;-82
2022/01/05 05:10:39;;;;;;;6.82;4.05;;;;;;;8.02;98.47;98775.06;6634516;26;34417;-82
2022/01/05 05:13:42;;;;;;;6.78;4.22;;;;;;;8.02;98.39;98768.88;6633856;26;34297;-82
2022/01/05 05:16:44;;;;;;;5.80;4.12;;;;;;;8.03;98.24;98786.59;6633722;26;33364;-82
2022/01/05 05:19:47;;;;;;;6.72;4.20;;;;;;;8.12;97.23;98777.34;6633485;26;33121;-79
2022/01/05 05:22:50;;;;;;;4.82;4.07;;;;;;;8.20;96.06;98766.44;6634612;26;33544;-81
2022/01/05 05:25:53;;;;;;;5.90;4.28;;;;;;;8.28;95.48;98778.84;6633672;26;33545;-80
2022/01/05 05:28:56;;;;;;;5.10;4.03;;;;;;;8.31;95.02;98781.13;6633726;26;33467;-80
2022/01/05 05:31:59;;;;;;;6.12;4.37;;;;;;;8.23;95.49;98784.81;6633736;26;33426;-81
2022/01/05 05:35:01;;;;;;;4.93;4.22;;;;;;;8.21;95.62;98789.53;6639918;26;33540;-81
2022/01/05 05:38:05;;;;;;;5.62;3.85;;;;;;;8.24;95.40;98791.81;6640840;26;33674;-80
2022/01/05 05:41:12;;;;;;;6.40;4.70;;;;;;;8.21;95.76;98786.03;6635367;26;33166;-81
2022/01/05 05:44:15;;;;;;;6.30;4.30;;;;;;;8.21;95.55;98786.03;6633591;26;33266;-81
2022/01/05 05:47:17;;;;;;;8.15;4.45;;;;;;;8.14;95.80;98794.88;6633829;26;33665;-81
2022/01/05 05:50:20;;;;;;;8.43;4.90;;;;;;;8.14;95.99;98807.47;6634019;26;34719;-80
2022/01/05 05:53:23;;;;;;;8.93;4.95;;;;;;;8.13;95.95;98821.88;6633001;26;34976;-85
2022/01/05 05:56:26;;;;;;;8.38;5.18;;;;;;;8.06;96.23;98813.81;6633673;26;33586;-85
2022/01/05 05:59:28;;;;;;;9.88;5.75;;;;;;;8.15;95.63;98809.94;6633970;26;33691;-85
2022/01/05 06:02:31;;;;;;;8.60;5.43;;;;;;;8.09;96.06;98820.63;6635597;26;33639;-85
2022/01/05 06:05:34;;;;;;;7.43;5.40;;;;;;;8.06;95.91;98821.03;6638308;26;34041;-81
2022/01/05 06:08:37;;;;;;;9.45;5.68;;;;;;;8.00;96.25;98819.97;6635350;26;33395;-81
2022/01/05 06:11:40;;;;;;;7.78;5.53;;;;;;;8.05;95.89;98812.16;6633829;26;34219;-81
2022/01/05 06:14:42;;;;;;;8.82;5.70;;;;;;;7.93;96.53;98811.09;6636258;26;33542;-81
2022/01/05 06:17:45;;;;;;;9.15;5.70;;;;;;;7.94;96.34;98826.97;6636827;26;33634;-81
2022/01/05 06:20:48;;;;;;;10.57;6.00;;;;;;;7.89;96.29;98812.50;6643373;26;34194;-81
2022/01/05 06:23:50;;;;;;;6.90;5.45;;;;;;;7.82;96.61;98817.00;6636501;26;33587;-81
2022/01/05 06:26:53;;;;;;;8.25;5.55;;;;;;;7.82;96.70;98809.78;6635444;26;33445;-81
2022/01/05 06:29:56;;;;;;;12.90;6.07;;;;;;;7.85;96.13;98825.47;6633457;26;33435;-81
2022/01/05 06:32:59;;;;;;;10.25;6.05;;;;;;;7.88;95.90;98817.03;6643215;26;33526;-80
2022/01/05 06:36:02;;;;;;;9.68;5.78;;;;;;;7.90;95.90;98825.72;6636332;26;33639;-81
2022/01/05 06:39:05;;;;;;;7.50;5.60;;;;;;;7.84;96.50;98825.66;6633521;26;33734;-81
2022/01/05 06:42:08;;;;;;;9.45;5.70;;;;;;;7.88;96.17;98825.06;6631428;26;33066;-81
2022/01/05 06:45:11;;;;;;;10.75;5.82;;;;;;;7.82;96.75;98823.19;6634391;26;32998;-81
2022/01/05 06:48:13;;;;;;;11.77;6.10;;;;;;;7.86;96.16;98832.47;6634286;26;33427;-81
2022/01/05 06:51:16;;;;;;;9.30;6.43;;;;;;;7.94;95.81;98824.28;6634221;26;34430;-80
2022/01/05 06:54:19;;;;;;;8.90;5.60;;;;;;;7.91;95.72;98819.31;6633269;26;33410;-80
2022/01/05 06:57:22;;;;;;;9.82;6.10;;;;;;;7.97;95.51;98823.06;6634224;26;33390;-80
2022/01/05 07:00:26;;;;;;;10.48;5.90;;;;;;;7.98;95.35;98821.19;6634507;26;33819;-80
2022/01/05 07:03:29;;;;;;;9.98;6.20;;;;;;;7.97;95.55;98838.31;6636565;26;34603;-81
2022/01/05 07:06:32;;;;;;;9.50;5.68;;;;;;;7.95;95.76;98836.63;6640838;26;34086;-81
2022/01/05 07:09:35;;;;;;;14.52;6.20;;;;;;;8.04;95.45;98836.47;6635107;26;34544;-81
2022/01/05 07:12:38;;;;;;;11.10;6.53;;;;;;;8.06;95.36;98834.44;6649204;26;34855;-80
2022/01/05 07:15:41;;;;;;;11.63;5.53;;;;;;;8.09;95.32;98829.50;6633825;26;34681;-80
2022/01/05 07:18:44;;;;;;;9.45;5.95;;;;;;;8.13;94.97;98833.44;6633518;26;33789;-80
2022/01/05 07:21:47;;;;;;;10.65;6.20;;;;;;;8.15;94.71;98838.59;6632969;26;33143;-80
2022/01/05 07:24:50;;;;;;;13.70;6.22;;;;;;;8.11;95.52;98845.41;6633341;26;33683;-80
2022/01/05 07:27:53;;;;;;;9.13;5.07;;;;;;;8.17;95.06;98848.09;6633056;26;34168;-81
2022/01/05 07:30:56;;;;;;;7.93;5.00;;;;;;;8.22;95.22;98852.88;6633215;26;33520;-81
2022/01/05 07:33:59;;;;;;;7.03;5.07;;;;;;;8.36;93.85;98851.03;6634178;26;33431;-80
2022/01/05 07:37:02;;;;;;;10.98;5.82;;;;;;;8.31;94.46;98848.16;6633890;26;33728;-82
2022/01/05 07:40:06;;;;;;;10.70;5.22;;;;;;;8.33;94.43;98852.25;6634556;26;33926;-80
2022/01/05 07:43:09;;;;;;;7.05;5.32;;;;;;;8.43;94.01;98853.81;6639212;26;34722;-81
2022/01/05 07:46:12;;;;;;;9.20;5.12;;;;;;;8.41;94.14;98859.34;6656147;26;34887;-81
2022/01/05 07:49:17;;;;;;;6.60;4.60;;;;;;;8.59;93.55;98856.09;6640363;26;34964;-80
2022/01/05 07:52:20;;;;;;;8.73;4.95;;;;;;;8.63;92.89;98847.47;6635008;26;33338;-80
2022/01/05 07:55:23;;;;;;;7.10;5.35;;;;;;;8.59;92.91;98840.00;6633234;26;34000;-79
2022/01/05 07:58:27;;;;;;;9.38;5.10;;;;;;;8.55;93.23;98833.41;6638442;26;33698;-83
2022/01/05 08:01:30;;;;;;;7.40;5.30;;;;;;;8.57;93.20;98834.84;6629379;26;34113;-83
2022/01/05 08:04:34;;;;;;;8.45;5.10;;;;;;;8.67;92.41;98828.28;6634400;26;34500;-81
2022/01/05 08:07:37;;;;;;;7.72;5.07;;;;;;;8.79;91.62;98834.69;6633793;26;34298;-80
2022/01/05 08:10:39;;;;;;;7.90;5.28;;;;;;;8.72;92.08;98848.09;6653081;26;33513;-80
2022/01/05 08:13:42;;;;;;;12.45;5.60;;;;;;;8.78;91.90;98849.97;6643569;26;35284;-80
2022/01/05 08:16:45;;;;;;;8.32;5.20;;;;;;;8.84;91.38;98848.31;6631823;26;33597;-80
2022/01/05 08:19:48;;;;;;;11.93;5.28;;;;;;;8.85;91.45;98858.00;6630911;26;33691;-80
2022/01/05 08:22:51;;;;;;;10.35;5.72;;;;;;;8.74;92.07;98858.59;6635248;26;35098;-85
2022/01/05 08:25:54;;;;;;;11.88;6.12;;;;;;;8.71;92.37;98859.84;6633032;26;35129;-85
2022/01/05 08:28:57;;;;;;;10.13;5.78;;;;;;;8.76;92.02;98870.78;6634128;26;33158;-85
2022/01/05 08:32:02;;;;;;;12.40;6.07;;;;;;;8.75;92.23;98855.72;6635446;26;33503;-82
2022/01/05 08:35:06;;;;;;;11.93;5.95;;;;;;;8.87;91.95;98857.81;6640713;26;34870;-81
2022/01/05 08:38:09;;;;;;;10.52;5.32;;;;;;;8.94;91.68;98856.78;6635005;26;33595;-81
2022/01/05 08:41:12;;;;;;;10.30;5.97;;;;;;;9.11;91.24;98851.84;6635538;26;33481;-81
2022/01/05 08:44:14;;;;;;;8.90;5.50;;;;;;;9.20;90.30;98865.91;6633635;26;33566;-81
2022/01/05 08:47:17;;;;;;;9.45;5.70;;;;;;;9.31;89.91;98859.91;6641713;26;33909;-81
2022/01/05 08:50:22;;;;;;;9.68;6.00;;;;;;;9.38;89.35;98863.41;6636300;26;34017;-81
2022/01/05 08:53:25;;;;;;;10.70;5.93;;;;;;;9.45;89.24;98852.69;6634359;26;33569;-81
2022/01/05 08:56:28;;;;;;;9.45;5.32;;;;;;;9.50;88.75;98858.22;6634791;26;33280;-81
2022/01/05 08:59:31;;;;;;;10.43;6.43;;;;;;;9.45;89.18;98866.94;6632680;26;33171;-81
2022/01/05 09:02:34;;;;;;;9.60;5.95;;;;;;;9.50;88.84;98864.44;6633883;26;33434;-81
2022/01/05 09:05:38;;;;;;;12.80;6.62;;;;;;;9.53;88.89;98861.34;6634928;26;34187;-82
2022/01/05 09:08:41;;;;;;;10.25;6.40;;;;;;;9.49;89.39;98867.34;6633898;26;33377;-83
2022/01/05 09:11:44;;;;;;;12.20;6.65;;;;;;;9.52;89.16;98873.13;6634078;26;34497;-83
2022/01/05 09:14:46;;;;;;;12.88;6.93;;;;;;;9.62;89.19;98874.56;6632910;26;33850;-83
2022/01/05 09:17:49;;;;;;;10.13;6.47;;;;;;;9.61;89.33;98880.97;6635203;26;33086;-81
2022/01/05 09:20:52;;;;;;;13.23;6.62;;;;;;;9.76;88.85;98884.25;6634725;26;33430;-82
2022/01/05 09:23:55;;;;;;;13.73;6.93;;;;;;;9.76;88.58;98882.38;6633700;26;34606;-83
2022/01/05 09:27:02;;;;;;;13.15;6.95;;;;;;;9.88;88.49;98884.44;6633800;26;34372;-82
2022/01/05 09:30:09;;;;;;;14.15;6.68;;;;;;;10.04;87.41;98877.78;6634182;26;33898;-80
2022/01/05 09:33:16;;;;;;;14.18;7.47;;;;;;;10.11;87.07;98879.41;6631455;26;34255;-80
2022/01/05 09:36:30;;;;;;;15.00;7.28;;;;;;;10.08;87.11;98887.91;6632671;26;33809;-81
2022/01/05 09:42:54;;;;;;;7.60;3.90;;;;;;;10.26;86.17;98905.22;6633758;26;34351;-81
2022/01/05 09:46:09;;;;;;;5.93;3.65;;;;;;;10.44;84.25;98905.38;6633666;26;33777;-82
2022/01/05 09:49:22;;;;;;;7.45;3.80;;;;;;;10.56;83.38;98902.84;6633306;26;33866;-82
2022/01/05 09:52:25;;;;;;;8.40;3.40;;;;;;;10.47;83.29;98902.31;6633006;26;34659;-80
2022/01/05 09:55:28;;;;;;;6.75;3.90;;;;;;;10.44;83.69;98906.25;6633271;26;34313;-84
2022/01/05 09:58:32;;;;;;;9.75;3.60;;;;;;;10.53;82.99;98905.97;6634431;26;34226;-85
2022/01/05 10:01:37;;;;;;;6.43;3.58;;;;;;;10.55;82.60;98902.03;6634300;26;33672;-86
2022/01/05 10:04:41;;;;;;;4.22;3.80;;;;;;;10.45;82.97;98885.53;6633804;26;34712;-82
2022/01/05 10:07:44;;;;;;;5.12;4.00;;;;;;;10.41;83.53;98892.38;6635090;26;33734;-83
2022/01/05 10:10:47;;;;;;;6.12;4.10;;;;;;;10.39;83.20;98897.16;6632839;26;32991;-82
2022/01/05 10:13:50;;;;;;;6.97;4.90;;;;;;;10.38;83.71;98900.88;6633302;26;34164;-82
2022/01/05 10:17:23;;;;;;;5.70;5.10;;;;;;;10.29;83.80;98904.84;6633251;26;33442;-82
2022/01/05 10:20:25;;;;;;;6.22;5.45;;;;;;;10.05;84.22;98914.38;6631592;26;34196;-82
2022/01/05 10:23:43;;;;;;;7.75;5.37;;;;;;;9.94;85.07;98907.78;6633434;26;33560;-82
2022/01/05 10:26:45;;;;;;;6.05;4.75;;;;;;;9.95;84.72;98904.09;6633859;26;33518;-82
2022/01/05 10:29:51;;;;;;;7.43;4.87;;;;;;;10.02;84.51;98907.56;6632684;26;34074;-81
2022/01/05 10:32:54;;;;;;;5.15;4.03;;;;;;;9.83;85.51;98897.66;6633413;26;33670;-82
2022/01/05 10:35:57;;;;;;;8.55;4.78;;;;;;;9.71;85.85;98901.00;6632169;26;34210;-82
2022/01/05 10:39:00;;;;;;;4.43;4.00;;;;;;;9.64;86.45;98894.81;6635119;26;33144;-81
2022/01/05 10:42:14;;;;;;;6.85;4.20;;;;;;;9.67;86.53;98907.81;6636248;26;34303;-82
2022/01/05 10:45:19;;;;;;;3.95;3.25;;;;;;;9.64;86.65;98899.34;6636645;26;33838;-80
2022/01/05 10:48:24;;;;;;;4.50;3.67;;;;;;;9.56;86.45;98899.56;6633425;26;33500;-81
2022/01/05 10:51:31;;;;;;;3.97;3.50;;;;;;;9.51;86.80;98905.56;6642930;26;34994;-81
2022/01/05 10:54:34;;;;;;;5.40;3.30;;;;;;;9.46;87.19;98903.50;6640571;26;34230;-82
2022/01/05 10:57:37;;;;;;;5.15;3.30;;;;;;;9.38;86.96;98919.81;6638724;26;33530;-82
2022/01/05 11:00:47;;;;;;;3.90;3.50;;;;;;;9.34;87.15;98918.59;6633697;26;33676;-82
2022/01/05 11:03:50;;;;;;;3.45;3.10;;;;;;;9.23;87.52;98917.31;6635782;26;33578;-82
2022/01/05 11:07:03;;;;;;;3.50;2.67;;;;;;;9.24;87.52;98937.78;6636316;26;33472;-82
2022/01/05 11:10:09;;;;;;;6.57;2.80;;;;;;;9.16;88.18;98947.91;6637504;26;34509;-82
2022/01/05 11:13:12;;;;;;;4.87;3.03;;;;;;;8.84;90.94;98945.75;6633932;26;34154;-85
2022/01/05 11:16:25;;;;;;;4.00;2.70;;;;;;;8.75;92.66;98941.59;6635253;26;33471;-85
2022/01/05 11:19:30;;;;;;;3.70;3.08;;;;;;;8.60;94.11;98955.16;6634628;26;33297;-82
2022/01/05 11:22:33;;;;;;;3.20;2.33;;;;;;;8.46;95.13;98971.41;6634726;26;33757;-82
2022/01/05 11:25:41;;;;;;;3.45;2.42;;;;;;;8.27;96.95;98970.22;6634429;26;33214;-81
2022/01/05 11:28:43;;;;;;;3.08;2.10;;;;;;;8.18;98.23;98980.28;6641555;26;33951;-81
2022/01/05 11:31:46;;;;;;;2.17;1.95;;;;;;;8.15;98.91;98983.34;6641150;26;34069;-81
2022/01/05 11:34:50;;;;;;;3.03;2.10;;;;;;;8.13;97.80;98980.03;6643861;26;33572;-81
2022/01/05 11:37:53;;;;;;;2.78;2.30;;;;;;;8.11;98.34;98982.91;6635338;26;33145;-82
2022/01/05 11:40:56;;;;;;;3.72;2.28;;;;;;;8.04;98.20;98982.03;6632032;26;33393;-81
2022/01/05 11:44:00;;;;;;;5.05;2.65;;;;;;;7.91;99.52;98987.31;6632177;26;33831;-81
2022/01/05 11:47:27;;;;;;;4.12;2.47;;;;;;;7.91;99.78;98988.13;6632311;26;33170;-82
2022/01/05 11:50:30;;;;;;;3.53;2.87;;;;;;;7.90;99.53;98985.66;6633067;26;33037;-81
2022/01/05 11:53:45;;;;;;;3.47;2.60;;;;;;;7.84;100.00;99007.84;6631994;26;33268;-80
2022/01/05 11:56:55;;;;;;;2.87;2.50;;;;;;;7.77;100.00;99025.72;6633033;26;34822;-80
2022/01/05 12:00:19;;;;;;;3.97;2.87;;;;;;;7.79;99.75;99029.88;6632854;26;33692;-80
2022/01/05 12:03:52;;;;;;;3.60;2.80;;;;;;;7.84;99.05;99011.38;6632758;26;33075;-81
2022/01/05 12:07:04;;;;;;;6.83;3.10;;;;;;;7.80;99.16;99004.75;6614440;26;33450;-85
2022/01/05 12:10:21;;;;;;;3.33;3.03;;;;;;;7.74;100.00;99016.22;6633398;26;33881;-85
2022/01/05 12:13:35;;;;;;;5.95;3.17;;;;;;;7.78;100.00;99020.19;6634575;26;33298;-81
2022/01/05 12:17:05;;;;;;;7.75;3.40;;;;;;;7.63;100.00;99027.47;6633177;26;33591;-80
2022/01/05 12:20:09;;;;;;;4.47;3.42;;;;;;;7.56;100.00;99038.13;6633362;26;34934;-81
2022/01/05 12:23:24;;;;;;;4.82;3.10;;;;;;;7.57;99.98;99037.09;6632759;26;33226;-81
2022/01/05 12:26:29;;;;;;;6.53;3.40;;;;;;;7.53;100.00;99029.62;6633773;26;33540;-80
2022/01/05 12:29:32;;;;;;;3.78;3.10;;;;;;;7.54;99.80;99036.66;6634232;26;34781;-82
2022/01/05 12:32:44;;;;;;;3.15;2.75;;;;;;;7.45;98.35;99047.47;6634376;26;33042;-80
2022/01/05 12:35:56;;;;;;;2.62;2.42;;;;;;;7.44;95.73;99055.72;6635187;26;33430;-81
2022/01/05 12:38:59;;;;;;;3.40;2.17;;;;;;;7.42;93.83;99042.50;6635839;26;33852;-82
2022/01/05 12:42:34;;;;;;;3.55;2.17;;;;;;;7.43;93.78;99044.19;6632993;26;33627;-81
2022/01/05 12:45:43;;;;;;;2.30;2.10;;;;;;;7.44;92.75;99056.53;6572387;26;33508;-82
2022/01/05 12:48:49;;;;;;;1.80;1.70;;;;;;;7.45;92.28;99049.31;6633807;26;33104;-82
2022/01/05 12:52:04;;;;;;;1.77;1.67;;;;;;;7.39;93.12;99058.94;6633180;26;33804;-85
2022/01/05 12:55:08;;;;;;;1.40;1.30;;;;;;;7.40;90.88;99060.62;6636071;26;33035;-82
2022/01/05 12:58:11;;;;;;;1.40;1.30;;;;;;;7.27;90.22;99061.28;6636599;26;33487;-82
2022/01/05 13:01:15;;;;;;;2.67;1.30;;;;;;;7.26;90.17;99058.81;6641250;26;33330;-82
2022/01/05 13:04:18;;;;;;;1.75;1.37;;;;;;;7.17;89.60;99071.47;6636099;26;33594;-81
2022/01/05 13:07:23;;;;;;;1.65;1.20;;;;;;;7.14;89.13;99073.72;6636994;26;34800;-80
2022/01/05 13:10:28;;;;;;;1.33;1.20;;;;;;;7.14;89.99;99079.06;6633280;26;33641;-81
2022/01/05 13:13:31;;;;;;;1.55;1.45;;;;;;;7.15;90.34;99076.19;6640027;26;33472;-81
2022/01/05 13:16:34;;;;;;;3.22;1.70;;;;;;;7.10;91.06;99081.25;6639793;26;33931;-80
2022/01/05 13:19:58;;;;;;;1.87;1.67;;;;;;;7.05;91.47;99094.41;6633012;26;33583;-80
2022/01/05 13:23:03;;;;;;;1.98;1.77;;;;;;;7.03;91.99;99094.56;6633796;26;33622;-80
2022/01/05 13:26:10;;;;;;;2.15;1.87;;;;;;;7.06;91.91;99116.63;6632462;26;33357;-80
2022/01/05 13:29:20;;;;;;;2.20;2.00;;;;;;;7.04;91.71;99117.63;6633037;26;34203;-80
2022/01/05 13:32:23;;;;;;;;;;;;;;;7.03;92.66;99107.94;6633981;26;34186;-81
2022/01/05 13:35:31;;;;;;;4.40;2.67;;;;;;;7.05;92.85;99118.47;6634657;26;34102;-81
2022/01/05 13:38:33;;;;;;;2.60;2.40;;;;;;;7.09;92.35;99111.72;6634681;26;33493;-81
2022/01/05 13:41:54;;;;;;;3.03;2.17;;;;;;;7.01;93.12;99114.50;6634326;26;33968;-81
2022/01/05 13:44:57;;;;;;;3.20;2.37;;;;;;;6.96;93.75;99109.72;6633003;26;33096;-82
2022/01/05 13:48:05;;;;;;;6.60;2.87;;;;;;;6.98;93.50;99109.53;6633543;26;34196;-81
2022/01/05 13:51:10;;;;;;;5.18;2.65;;;;;;;6.96;95.14;99117.75;6634483;26;33522;-81
2022/01/05 13:54:13;;;;;;;3.28;2.97;;;;;;;7.00;94.33;99099.47;6634327;26;34532;-82
2022/01/05 13:57:29;;;;;;;3.08;2.78;;;;;;;6.97;94.37;99107.88;6634446;26;33359;-82
2022/01/05 14:00:33;;;;;;;3.97;3.10;;;;;;;6.95;95.31;99120.59;6636331;26;34258;-82
2022/01/05 14:03:46;;;;;;;4.30;3.25;;;;;;;6.90;95.20;99129.16;6634729;26;33922;-86
2022/01/05 14:06:58;;;;;;;4.37;3.15;;;;;;;6.87;95.74;99134.88;6634118;26;33959;-82
2022/01/05 14:10:14;;;;;;;3.55;3.12;;;;;;;6.82;95.83;99139.97;6635266;26;33572;-82
2022/01/05 14:13:16;;;;;;;5.68;3.47;;;;;;;6.85;95.99;99144.97;6634428;26;33684;-82
2022/01/05 14:16:35;;;;;;;3.40;3.05;;;;;;;6.89;96.28;99145.41;6635598;26;33805;-82
2022/01/05 14:19:38;;;;;;;4.20;3.40;;;;;;;6.91;96.42;99146.91;6647470;26;34059;-82
2022/01/05 14:22:42;;;;;;;4.85;3.70;;;;;;;6.87;96.57;99164.31;6650676;26;34479;-82
2022/01/05 14:25:47;;;;;;;5.43;3.60;;;;;;;6.84;97.65;99167.34;6648555;26;33889;-82
2022/01/05 14:28:50;;;;;;;5.07;3.78;;;;;;;6.73;98.80;99157.13;6634837;26;34329;-81
2022/01/05 14:32:16;;;;;;;5.15;3.80;;;;;;;6.74;99.01;99159.62;6633966;26;34257;-81
2022/01/05 14:35:20;;;;;;;4.53;3.87;;;;;;;6.69;100.00;99163.84;6634613;26;33710;-82
2022/01/05 14:38:23;;;;;;;4.57;4.07;;;;;;;6.62;100.00;99163.75;6633340;26;33555;-81
2022/01/05 14:41:42;;;;;;;4.93;4.03;;;;;;;6.67;99.97;99179.25;6633858;26;33222;-82
2022/01/05 14:44:50;;;;;;;5.20;4.30;;;;;;;6.70;99.26;99189.56;6633983;26;34949;-80
2022/01/05 14:48:11;;;;;;;4.62;3.97;;;;;;;6.70;98.77;99198.44;6635326;26;33913;-82
2022/01/05 14:51:13;;;;;;;5.45;4.00;;;;;;;6.73;99.34;99183.88;6636878;26;34318;-80
2022/01/05 14:54:21;;;;;;;6.07;3.97;;;;;;;6.69;98.86;99199.44;6640165;26;33399;-79
2022/01/05 14:57:24;;;;;;;7.35;4.47;;;;;;;6.68;98.24;99191.63;6636499;26;34197;-85
2022/01/05 15:00:27;;;;;;;4.97;4.47;;;;;;;6.72;98.91;99204.44;6633764;26;33477;-84
2022/01/05 15:03:30;;;;;;;5.90;4.68;;;;;;;6.67;98.55;99209.50;6632725;26;34501;-86
2022/01/05 15:06:33;;;;;;;6.20;4.97;;;;;;;6.70;98.24;99202.94;6634320;26;33716;-79
2022/01/05 15:09:43;;;;;;;6.82;4.72;;;;;;;6.64;98.45;99214.38;6640629;26;34386;-82
2022/01/05 15:12:46;;;;;;;6.07;4.47;;;;;;;6.70;98.44;99194.91;6633408;26;34143;-82
2022/01/05 15:15:49;;;;;;;6.10;4.03;;;;;;;6.69;98.11;99203.97;6633343;26;33503;-82
2022/01/05 15:18:52;;;;;;;7.07;4.22;;;;;;;6.65;98.38;99216.87;6632543;26;33641;-82
2022/01/05 15:21:54;;;;;;;4.53;3.70;;;;;;;6.56;98.92;99224.13;6633392;26;33552;-82
2022/01/05 15:24:57;;;;;;;6.18;3.90;;;;;;;6.56;99.78;99256.22;6632332;26;35353;-80
2022/01/05 15:28:00;;;;;;;4.95;3.75;;;;;;;6.63;98.32;99279.56;6632929;26;33584;-80
2022/01/05 15:31:03;;;;;;;3.97;3.47;;;;;;;6.66;98.51;99279.22;6633153;26;34876;-80
2022/01/05 15:34:06;;;;;;;4.28;3.42;;;;;;;6.66;98.76;99274.69;6633188;26;33380;-80
2022/01/05 15:37:09;;;;;;;4.85;3.42;;;;;;;6.65;97.56;99264.19;6632815;26;34381;-81
2022/01/05 15:40:13;;;;;;;4.47;3.20;;;;;;;6.66;97.53;99281.88;6633063;26;33167;-80
2022/01/05 15:43:16;;;;;;;4.45;2.95;;;;;;;6.66;97.53;99264.00;6633317;26;33437;-80
2022/01/05 15:46:20;;;;;;;7.20;3.30;;;;;;;6.57;97.07;99243.69;6633491;26;34035;-80
2022/01/05 15:49:24;;;;;;;4.87;3.15;;;;;;;6.50;97.44;99256.13;6634415;26;33982;-80
2022/01/05 15:52:27;;;;;;;4.12;3.15;;;;;;;6.60;98.30;99262.03;6634399;26;33422;-80
2022/01/05 15:55:38;;;;;;;4.10;3.15;;;;;;;6.58;97.90;99256.88;6635620;26;33447;-80
2022/01/05 16:02:04;;;;;;;3.70;2.97;;;;;;;6.47;98.94;99256.47;6635952;26;33819;-80
2022/01/05 16:05:07;;;;;;;3.75;3.37;;;;;;;6.39;98.69;99261.87;6634254;26;33436;-80
2022/01/05 16:08:10;;;;;;;6.22;4.47;;;;;;;6.30;99.01;99275.28;6634305;26;34476;-80
2022/01/05 16:11:16;;;;;;;4.93;3.92;;;;;;;6.26;99.29;99262.44;6634218;26;33571;-80
2022/01/05 16:14:19;;;;;;;4.87;3.72;;;;;;;6.20;100.00;99282.72;6634420;26;33697;-80
2022/01/05 16:17:22;;;;;;;5.50;3.95;;;;;;;6.23;98.98;99292.22;6634255;26;34836;-80
2022/01/05 16:20:24;;;;;;;5.62;4.45;;;;;;;6.29;98.62;99292.34;6633957;26;33532;-80
2022/01/05 16:23:27;;;;;;;5.85;3.75;;;;;;;6.26;98.91;99286.50;6633935;26;33583;-80
2022/01/05 16:26:30;;;;;;;5.43;4.18;;;;;;;6.24;98.70;99280.53;6633962;26;33581;-80
2022/01/05 16:29:33;;;;;;;4.95;4.20;;;;;;;6.24;99.31;99269.84;6634000;26;34411;-80
2022/01/05 16:32:38;;;;;;;4.95;3.90;;;;;;;6.19;99.34;99257.00;6634310;26;34337;-80
2022/01/05 16:35:57;;;;;;;5.37;4.32;;;;;;;6.22;99.04;99253.13;6634431;26;33386;-80
2022/01/05 16:38:59;;;;;;;5.22;4.12;;;;;;;6.28;99.15;99263.13;6634045;26;33630;-80
2022/01/05 16:42:02;;;;;;;5.18;4.53;;;;;;;6.30;98.57;99261.94;6634184;26;33459;-84
2022/01/05 16:45:07;;;;;;;5.62;4.20;;;;;;;6.34;98.16;99267.75;6634270;26;33308;-84
2022/01/05 16:48:10;;;;;;;6.35;4.15;;;;;;;6.33;98.27;99266.09;6636004;26;33449;-84
2022/01/05 16:51:13;;;;;;;4.40;4.00;;;;;;;6.28;98.37;99268.47;6637666;26;34754;-81
